sensor_id;sensor_type;location;lat;lon;timestamp;P1;durP1;ratioP1;P2;durP2;ratioP2
16063;SDS011;8136;53.172;8.256;2024-01-30T03:35:22;13.93;;;9.33;;
16063;SDS011;8136;53.172;8.256;2024-01-30T03:42:20;13.20;;;10.13;;
16063;SDS011;8136;53.172;8.256;2024-01-30T06:28:11;11.37;;;8.80;;
16063;SDS011;8136;53.172;8.256;2024-01-30T06:30:50;12.87;;;9.87;;
16063;SDS011;8136;53.172;8.256;2024-01-30T06:33:19;14.57;;;9.80;;
16063;SDS011;8136;53.172;8.256;2024-01-30T06:35:56;12.70;;;9.70;;
16063;SDS011;8136;53.172;8.256;2024-01-30T06:51:52;11.87;;;8.93;;
16063;SDS011;8136;53.172;8.256;2024-01-30T06:54:57;13.20;;;8.90;;
16063;SDS011;8136;53.172;8.256;2024-01-30T07:05:35;14.90;;;10.43;;
16063;SDS011;8136;53.172;8.256;2024-01-30T07:12:30;11.63;;;9.00;;
16063;SDS011;8136;53.172;8.256;2024-01-30T07:15:26;12.57;;;8.97;;
16063;SDS011;8136;53.172;8.256;2024-01-30T07:17:55;10.33;;;8.60;;
16063;SDS011;8136;53.172;8.256;2024-01-30T07:20:24;14.57;;;9.60;;
16063;SDS011;8136;53.172;8.256;2024-01-30T07:23:05;14.20;;;9.60;;
16063;SDS011;8136;53.172;8.256;2024-01-30T07:25:41;14.17;;;9.40;;
16063;SDS011;8136;53.172;8.256;2024-01-30T07:28:13;11.63;;;8.67;;
16063;SDS011;8136;53.172;8.256;2024-01-30T07:30:44;12.63;;;10.47;;
16063;SDS011;8136;53.172;8.256;2024-01-30T07:33:12;11.77;;;9.33;;
16063;SDS011;8136;53.172;8.256;2024-01-30T07:35:47;12.57;;;9.67;;
16063;SDS011;8136;53.172;8.256;2024-01-30T07:38:15;13.83;;;10.53;;
16063;SDS011;8136;53.172;8.256;2024-01-30T07:40:47;14.00;;;10.13;;
16063;SDS011;8136;53.172;8.256;2024-01-30T07:43:26;15.03;;;10.10;;
16063;SDS011;8136;53.172;8.256;2024-01-30T07:46:01;14.70;;;10.07;;
16063;SDS011;8136;53.172;8.256;2024-01-30T07:48:28;14.63;;;9.77;;
16063;SDS011;8136;53.172;8.256;2024-01-30T07:50:55;12.50;;;9.40;;
16063;SDS011;8136;53.172;8.256;2024-01-30T07:53:29;12.40;;;9.43;;
16063;SDS011;8136;53.172;8.256;2024-01-30T07:56:07;16.57;;;9.43;;
16063;SDS011;8136;53.172;8.256;2024-01-30T07:58:51;12.97;;;8.90;;
16063;SDS011;8136;53.172;8.256;2024-01-30T08:01:20;12.20;;;9.93;;
16063;SDS011;8136;53.172;8.256;2024-01-30T08:03:56;14.20;;;9.90;;
16063;SDS011;8136;53.172;8.256;2024-01-30T08:06:32;10.53;;;8.20;;
16063;SDS011;8136;53.172;8.256;2024-01-30T08:09:02;13.83;;;9.47;;
16063;SDS011;8136;53.172;8.256;2024-01-30T08:11:33;12.57;;;9.23;;
16063;SDS011;8136;53.172;8.256;2024-01-30T08:14:16;13.67;;;9.40;;
16063;SDS011;8136;53.172;8.256;2024-01-30T08:16:58;16.60;;;10.23;;
16063;SDS011;8136;53.172;8.256;2024-01-30T08:19:35;15.20;;;8.83;;
16063;SDS011;8136;53.172;8.256;2024-01-30T08:22:15;11.20;;;8.70;;
16063;SDS011;8136;53.172;8.256;2024-01-30T08:24:53;13.53;;;9.33;;
16063;SDS011;8136;53.172;8.256;2024-01-30T08:27:35;13.87;;;8.93;;
16063;SDS011;8136;53.172;8.256;2024-01-30T10:46:27;10.57;;;7.30;;
16063;SDS011;8136;53.172;8.256;2024-01-30T10:48:59;10.47;;;6.73;;
16063;SDS011;8136;53.172;8.256;2024-01-30T10:51:28;12.20;;;7.80;;
16063;SDS011;8136;53.172;8.256;2024-01-30T10:53:55;10.33;;;6.67;;
16063;SDS011;8136;53.172;8.256;2024-01-30T10:56:23;15.13;;;7.67;;
16063;SDS011;8136;53.172;8.256;2024-01-30T10:58:50;8.03;;;6.63;;
16063;SDS011;8136;53.172;8.256;2024-01-30T11:01:18;9.70;;;7.10;;
16063;SDS011;8136;53.172;8.256;2024-01-30T11:03:49;8.93;;;7.03;;
16063;SDS011;8136;53.172;8.256;2024-01-30T11:06:17;10.03;;;6.80;;
16063;SDS011;8136;53.172;8.256;2024-01-30T11:08:45;14.13;;;7.33;;
16063;SDS011;8136;53.172;8.256;2024-01-30T11:11:12;8.93;;;6.27;;
16063;SDS011;8136;53.172;8.256;2024-01-30T11:13:42;10.70;;;6.73;;
16063;SDS011;8136;53.172;8.256;2024-01-30T11:16:09;6.87;;;6.17;;
16063;SDS011;8136;53.172;8.256;2024-01-30T11:18:38;9.03;;;6.67;;
16063;SDS011;8136;53.172;8.256;2024-01-30T11:21:06;9.03;;;6.43;;
16063;SDS011;8136;53.172;8.256;2024-01-30T11:23:34;11.63;;;6.70;;
16063;SDS011;8136;53.172;8.256;2024-01-30T11:26:02;9.07;;;7.03;;
16063;SDS011;8136;53.172;8.256;2024-01-30T11:28:33;9.43;;;6.67;;
16063;SDS011;8136;53.172;8.256;2024-01-30T11:31:03;9.60;;;6.43;;
16063;SDS011;8136;53.172;8.256;2024-01-30T11:33:32;10.07;;;6.80;;
16063;SDS011;8136;53.172;8.256;2024-01-30T11:35:59;11.17;;;6.37;;
16063;SDS011;8136;53.172;8.256;2024-01-30T11:38:42;9.20;;;6.73;;
16063;SDS011;8136;53.172;8.256;2024-01-30T11:41:38;11.77;;;6.93;;
16063;SDS011;8136;53.172;8.256;2024-01-30T11:44:07;10.40;;;7.00;;
16063;SDS011;8136;53.172;8.256;2024-01-30T11:46:34;15.00;;;7.30;;
16063;SDS011;8136;53.172;8.256;2024-01-30T11:49:01;10.87;;;6.67;;
16063;SDS011;8136;53.172;8.256;2024-01-30T11:51:30;7.60;;;5.97;;
16063;SDS011;8136;53.172;8.256;2024-01-30T11:53:58;9.47;;;6.00;;
16063;SDS011;8136;53.172;8.256;2024-01-30T11:56:25;12.43;;;7.17;;
16063;SDS011;8136;53.172;8.256;2024-01-30T11:58:53;11.10;;;7.13;;
16063;SDS011;8136;53.172;8.256;2024-01-30T12:01:24;13.93;;;7.17;;
16063;SDS011;8136;53.172;8.256;2024-01-30T12:03:52;10.90;;;6.67;;
16063;SDS011;8136;53.172;8.256;2024-01-30T12:06:19;10.23;;;6.13;;
16063;SDS011;8136;53.172;8.256;2024-01-30T12:08:55;10.53;;;7.37;;
16063;SDS011;8136;53.172;8.256;2024-01-30T12:11:24;10.53;;;6.60;;
16063;SDS011;8136;53.172;8.256;2024-01-30T12:13:51;11.60;;;6.73;;
16063;SDS011;8136;53.172;8.256;2024-01-30T12:16:20;9.30;;;6.73;;
16063;SDS011;8136;53.172;8.256;2024-01-30T12:18:47;11.10;;;6.20;;
16063;SDS011;8136;53.172;8.256;2024-01-30T12:21:17;13.27;;;6.57;;
16063;SDS011;8136;53.172;8.256;2024-01-30T12:23:50;11.30;;;6.50;;
16063;SDS011;8136;53.172;8.256;2024-01-30T12:26:18;10.03;;;7.60;;
16063;SDS011;8136;53.172;8.256;2024-01-30T12:28:49;10.83;;;6.70;;
16063;SDS011;8136;53.172;8.256;2024-01-30T12:31:17;10.87;;;6.20;;
16063;SDS011;8136;53.172;8.256;2024-01-30T12:33:44;12.00;;;7.60;;
16063;SDS011;8136;53.172;8.256;2024-01-30T12:36:15;10.23;;;6.73;;
16063;SDS011;8136;53.172;8.256;2024-01-30T12:38:43;7.90;;;6.53;;
16063;SDS011;8136;53.172;8.256;2024-01-30T12:41:10;13.07;;;6.90;;
16063;SDS011;8136;53.172;8.256;2024-01-30T12:43:38;10.47;;;7.43;;
16063;SDS011;8136;53.172;8.256;2024-01-30T12:46:08;9.87;;;6.83;;
16063;SDS011;8136;53.172;8.256;2024-01-30T12:48:35;12.83;;;6.87;;
16063;SDS011;8136;53.172;8.256;2024-01-30T12:51:02;9.77;;;6.73;;
16063;SDS011;8136;53.172;8.256;2024-01-30T12:53:30;10.77;;;7.03;;
16063;SDS011;8136;53.172;8.256;2024-01-30T12:55:57;7.97;;;6.40;;
16063;SDS011;8136;53.172;8.256;2024-01-30T12:58:24;8.27;;;6.47;;
16063;SDS011;8136;53.172;8.256;2024-01-30T13:00:52;9.73;;;6.20;;
16063;SDS011;8136;53.172;8.256;2024-01-30T13:03:22;9.37;;;6.43;;
16063;SDS011;8136;53.172;8.256;2024-01-30T13:05:49;11.77;;;7.43;;
16063;SDS011;8136;53.172;8.256;2024-01-30T13:08:16;8.77;;;6.47;;
16063;SDS011;8136;53.172;8.256;2024-01-30T13:10:43;11.97;;;6.97;;
16063;SDS011;8136;53.172;8.256;2024-01-30T13:13:13;10.17;;;7.00;;
16063;SDS011;8136;53.172;8.256;2024-01-30T13:15:39;10.90;;;7.10;;
16063;SDS011;8136;53.172;8.256;2024-01-30T13:18:07;11.07;;;6.60;;
16063;SDS011;8136;53.172;8.256;2024-01-30T13:20:35;10.33;;;6.77;;
16063;SDS011;8136;53.172;8.256;2024-01-30T13:23:02;10.03;;;6.77;;
16063;SDS011;8136;53.172;8.256;2024-01-30T13:25:29;11.17;;;6.57;;
16063;SDS011;8136;53.172;8.256;2024-01-30T13:27:57;10.80;;;6.83;;
16063;SDS011;8136;53.172;8.256;2024-01-30T13:30:24;11.27;;;7.00;;
16063;SDS011;8136;53.172;8.256;2024-01-30T13:32:53;10.20;;;6.53;;
16063;SDS011;8136;53.172;8.256;2024-01-30T13:35:20;10.97;;;6.53;;
16063;SDS011;8136;53.172;8.256;2024-01-30T13:37:49;11.73;;;7.53;;
16063;SDS011;8136;53.172;8.256;2024-01-30T13:40:18;12.13;;;7.20;;
16063;SDS011;8136;53.172;8.256;2024-01-30T13:42:47;9.47;;;6.63;;
16063;SDS011;8136;53.172;8.256;2024-01-30T13:45:14;10.60;;;7.17;;
16063;SDS011;8136;53.172;8.256;2024-01-30T13:47:41;12.03;;;6.97;;
16063;SDS011;8136;53.172;8.256;2024-01-30T13:50:08;10.57;;;7.40;;
16063;SDS011;8136;53.172;8.256;2024-01-30T13:52:40;9.33;;;6.97;;
16063;SDS011;8136;53.172;8.256;2024-01-30T13:55:08;10.50;;;7.37;;
16063;SDS011;8136;53.172;8.256;2024-01-30T13:57:35;8.93;;;6.97;;
16063;SDS011;8136;53.172;8.256;2024-01-30T14:00:03;8.73;;;7.00;;
16063;SDS011;8136;53.172;8.256;2024-01-30T14:02:34;10.80;;;7.00;;
16063;SDS011;8136;53.172;8.256;2024-01-30T14:05:01;9.30;;;5.97;;
16063;SDS011;8136;53.172;8.256;2024-01-30T14:07:29;10.87;;;6.70;;
16063;SDS011;8136;53.172;8.256;2024-01-30T14:09:56;9.90;;;6.70;;
16063;SDS011;8136;53.172;8.256;2024-01-30T14:12:32;10.00;;;6.93;;
16063;SDS011;8136;53.172;8.256;2024-01-30T14:15:02;13.77;;;6.70;;
16063;SDS011;8136;53.172;8.256;2024-01-30T14:17:29;9.93;;;6.00;;
16063;SDS011;8136;53.172;8.256;2024-01-30T14:20:04;9.80;;;6.27;;
16063;SDS011;8136;53.172;8.256;2024-01-30T14:22:34;10.80;;;6.63;;
16063;SDS011;8136;53.172;8.256;2024-01-30T14:25:01;11.80;;;6.30;;
16063;SDS011;8136;53.172;8.256;2024-01-30T14:27:30;9.90;;;6.17;;
16063;SDS011;8136;53.172;8.256;2024-01-30T14:29:59;9.77;;;6.37;;
16063;SDS011;8136;53.172;8.256;2024-01-30T14:32:28;8.23;;;6.57;;
16063;SDS011;8136;53.172;8.256;2024-01-30T14:34:55;12.30;;;6.20;;
16063;SDS011;8136;53.172;8.256;2024-01-30T14:37:22;9.50;;;6.13;;
16063;SDS011;8136;53.172;8.256;2024-01-30T14:39:50;15.47;;;6.27;;
16063;SDS011;8136;53.172;8.256;2024-01-30T14:42:17;8.17;;;6.37;;
16063;SDS011;8136;53.172;8.256;2024-01-30T14:44:45;8.37;;;6.17;;
16063;SDS011;8136;53.172;8.256;2024-01-30T14:47:12;9.07;;;6.27;;
16063;SDS011;8136;53.172;8.256;2024-01-30T14:49:39;7.47;;;6.13;;
16063;SDS011;8136;53.172;8.256;2024-01-30T14:52:06;10.13;;;5.87;;
16063;SDS011;8136;53.172;8.256;2024-01-30T14:55:06;11.10;;;6.97;;
16063;SDS011;8136;53.172;8.256;2024-01-30T14:57:32;8.87;;;6.83;;
16063;SDS011;8136;53.172;8.256;2024-01-30T15:00:04;10.73;;;6.80;;
16063;SDS011;8136;53.172;8.256;2024-01-30T15:02:35;10.57;;;6.63;;
16063;SDS011;8136;53.172;8.256;2024-01-30T15:05:02;8.47;;;6.10;;
16063;SDS011;8136;53.172;8.256;2024-01-30T15:07:29;10.83;;;6.40;;
16063;SDS011;8136;53.172;8.256;2024-01-30T15:09:57;7.40;;;6.20;;
16063;SDS011;8136;53.172;8.256;2024-01-30T15:12:33;9.50;;;7.00;;
16063;SDS011;8136;53.172;8.256;2024-01-30T15:15:06;9.90;;;6.83;;
16063;SDS011;8136;53.172;8.256;2024-01-30T15:17:42;11.67;;;6.13;;
16063;SDS011;8136;53.172;8.256;2024-01-30T15:20:19;8.37;;;6.80;;
16063;SDS011;8136;53.172;8.256;2024-01-30T15:22:46;9.53;;;6.43;;
16063;SDS011;8136;53.172;8.256;2024-01-30T15:25:14;8.87;;;6.10;;
16063;SDS011;8136;53.172;8.256;2024-01-30T15:27:43;8.47;;;5.70;;
16063;SDS011;8136;53.172;8.256;2024-01-30T15:30:19;8.23;;;5.50;;
16063;SDS011;8136;53.172;8.256;2024-01-30T15:32:49;9.70;;;5.33;;
16063;SDS011;8136;53.172;8.256;2024-01-30T15:35:16;7.73;;;5.13;;
16063;SDS011;8136;53.172;8.256;2024-01-30T15:37:43;6.30;;;4.80;;
16063;SDS011;8136;53.172;8.256;2024-01-30T15:40:10;6.77;;;4.27;;
16063;SDS011;8136;53.172;8.256;2024-01-30T15:42:37;7.37;;;4.43;;
16063;SDS011;8136;53.172;8.256;2024-01-30T15:45:06;8.20;;;4.80;;
16063;SDS011;8136;53.172;8.256;2024-01-30T15:47:35;8.20;;;4.10;;
16063;SDS011;8136;53.172;8.256;2024-01-30T15:50:02;6.70;;;3.80;;
16063;SDS011;8136;53.172;8.256;2024-01-30T15:52:29;7.47;;;3.63;;
16063;SDS011;8136;53.172;8.256;2024-01-30T15:54:56;4.47;;;3.60;;
16063;SDS011;8136;53.172;8.256;2024-01-30T15:57:23;4.30;;;3.00;;
16063;SDS011;8136;53.172;8.256;2024-01-30T15:59:53;7.07;;;2.90;;
16063;SDS011;8136;53.172;8.256;2024-01-30T16:02:21;4.70;;;2.80;;
16063;SDS011;8136;53.172;8.256;2024-01-30T16:04:49;4.37;;;2.83;;
16063;SDS011;8136;53.172;8.256;2024-01-30T16:07:16;5.30;;;3.20;;
16063;SDS011;8136;53.172;8.256;2024-01-30T16:09:43;3.57;;;2.80;;
16063;SDS011;8136;53.172;8.256;2024-01-30T16:12:10;3.57;;;2.80;;
16063;SDS011;8136;53.172;8.256;2024-01-30T16:14:38;7.63;;;2.80;;
16063;SDS011;8136;53.172;8.256;2024-01-30T16:17:05;3.20;;;2.73;;
16063;SDS011;8136;53.172;8.256;2024-01-30T16:19:31;3.63;;;3.10;;
16063;SDS011;8136;53.172;8.256;2024-01-30T16:22:00;4.00;;;2.43;;
16063;SDS011;8136;53.172;8.256;2024-01-30T16:24:27;4.60;;;2.40;;
16063;SDS011;8136;53.172;8.256;2024-01-30T16:26:54;3.77;;;2.63;;
16063;SDS011;8136;53.172;8.256;2024-01-30T16:29:22;2.40;;;2.20;;
16063;SDS011;8136;53.172;8.256;2024-01-30T16:31:48;4.23;;;2.27;;
16063;SDS011;8136;53.172;8.256;2024-01-30T16:34:20;2.50;;;1.87;;
16063;SDS011;8136;53.172;8.256;2024-01-30T16:36:49;3.43;;;2.00;;
16063;SDS011;8136;53.172;8.256;2024-01-30T16:39:17;4.13;;;1.93;;
16063;SDS011;8136;53.172;8.256;2024-01-30T16:41:44;3.83;;;1.70;;
16063;SDS011;8136;53.172;8.256;2024-01-30T16:44:11;1.83;;;1.60;;
16063;SDS011;8136;53.172;8.256;2024-01-30T16:46:38;2.27;;;1.90;;
16063;SDS011;8136;53.172;8.256;2024-01-30T16:49:05;4.50;;;1.93;;
16063;SDS011;8136;53.172;8.256;2024-01-30T16:51:32;3.07;;;1.87;;
